sensor_id;sensor_type;location;lat;lon;timestamp;pressure;altitude;pressure_sealevel;temperature;humidity
72285;BME280;60220;53.552;10.092;2023-02-23T00:01:13;100970.97;;;9.20;83.20
72285;BME280;60220;53.552;10.092;2023-02-23T00:03:40;100969.38;;;8.76;85.50
72285;BME280;60220;53.552;10.092;2023-02-23T00:06:07;100967.59;;;8.78;85.44
72285;BME280;60220;53.552;10.092;2023-02-23T00:08:36;100965.88;;;8.74;85.12
72285;BME280;60220;53.552;10.092;2023-02-23T00:11:06;100965.00;;;8.58;86.34
72285;BME280;60220;53.552;10.092;2023-02-23T00:13:36;100969.38;;;8.70;86.57
72285;BME280;60220;53.552;10.092;2023-02-23T00:16:04;100964.13;;;8.76;87.26
72285;BME280;60220;53.552;10.092;2023-02-23T00:18:32;100966.75;;;8.59;86.86
72285;BME280;60220;53.552;10.092;2023-02-23T00:21:14;100957.19;;;8.48;86.30
72285;BME280;60220;53.552;10.092;2023-02-23T00:23:47;100958.03;;;8.76;85.83
72285;BME280;60220;53.552;10.092;2023-02-23T00:26:14;100955.44;;;8.67;85.96
72285;BME280;60220;53.552;10.092;2023-02-23T00:28:42;100958.00;;;8.73;86.45
72285;BME280;60220;53.552;10.092;2023-02-23T00:31:09;100957.19;;;8.45;86.75
72285;BME280;60220;53.552;10.092;2023-02-23T00:33:39;100957.16;;;8.57;87.17
72285;BME280;60220;53.552;10.092;2023-02-23T00:36:09;100952.84;;;8.30;87.60
72285;BME280;60220;53.552;10.092;2023-02-23T00:38:40;100953.72;;;8.37;87.85
72285;BME280;60220;53.552;10.092;2023-02-23T00:41:10;100957.16;;;8.01;88.66
72285;BME280;60220;53.552;10.092;2023-02-23T00:43:39;100955.44;;;8.19;89.75
72285;BME280;60220;53.552;10.092;2023-02-23T00:46:12;100957.19;;;8.37;88.15
72285;BME280;60220;53.552;10.092;2023-02-23T00:48:41;100954.56;;;8.60;87.52
72285;BME280;60220;53.552;10.092;2023-02-23T00:51:08;100957.19;;;8.60;87.02
72285;BME280;60220;53.552;10.092;2023-02-23T00:53:37;100959.78;;;8.60;86.15
72285;BME280;60220;53.552;10.092;2023-02-23T00:56:04;100964.16;;;8.55;86.63
72285;BME280;60220;53.552;10.092;2023-02-23T00:58:36;100954.59;;;8.36;87.38
72285;BME280;60220;53.552;10.092;2023-02-23T01:01:04;100961.56;;;8.35;88.21
72285;BME280;60220;53.552;10.092;2023-02-23T01:03:31;100958.91;;;8.00;89.38
72285;BME280;60220;53.552;10.092;2023-02-23T01:05:58;100958.06;;;8.44;88.90
72285;BME280;60220;53.552;10.092;2023-02-23T01:08:28;100948.44;;;8.25;89.24
72285;BME280;60220;53.552;10.092;2023-02-23T01:10:55;100952.81;;;8.10;89.46
72285;BME280;60220;53.552;10.092;2023-02-23T01:13:23;100954.56;;;8.25;89.62
72285;BME280;60220;53.552;10.092;2023-02-23T01:15:52;100958.97;;;8.37;88.15
72285;BME280;60220;53.552;10.092;2023-02-23T01:18:19;100956.28;;;8.25;88.82
72285;BME280;60220;53.552;10.092;2023-02-23T01:20:46;100953.69;;;8.25;88.83
72285;BME280;60220;53.552;10.092;2023-02-23T01:23:16;100956.34;;;8.41;89.09
72285;BME280;60220;53.552;10.092;2023-02-23T01:25:43;100962.38;;;8.17;89.00
72285;BME280;60220;53.552;10.092;2023-02-23T01:28:11;100955.41;;;8.22;89.08
72285;BME280;60220;53.552;10.092;2023-02-23T01:30:38;100951.91;;;7.93;89.13
72285;BME280;60220;53.552;10.092;2023-02-23T01:33:07;100949.31;;;8.23;89.86
72285;BME280;60220;53.552;10.092;2023-02-23T01:35:34;100950.19;;;8.06;90.22
72285;BME280;60220;53.552;10.092;2023-02-23T01:38:01;100944.94;;;7.80;90.33
72285;BME280;60220;53.552;10.092;2023-02-23T01:40:28;100942.34;;;8.03;90.04
72285;BME280;60220;53.552;10.092;2023-02-23T01:43:05;100945.84;;;8.05;90.38
72285;BME280;60220;53.552;10.092;2023-02-23T01:45:32;100948.44;;;7.97;90.65
72285;BME280;60220;53.552;10.092;2023-02-23T01:48:04;100951.91;;;7.93;91.05
72285;BME280;60220;53.552;10.092;2023-02-23T01:50:37;100949.31;;;7.98;90.87
72285;BME280;60220;53.552;10.092;2023-02-23T01:53:05;100941.47;;;8.05;90.70
72285;BME280;60220;53.552;10.092;2023-02-23T01:55:32;100945.84;;;8.00;90.14
72285;BME280;60220;53.552;10.092;2023-02-23T01:58:08;100950.19;;;8.19;90.25
72285;BME280;60220;53.552;10.092;2023-02-23T02:00:44;100943.22;;;8.09;89.47
72285;BME280;60220;53.552;10.092;2023-02-23T02:03:16;100943.22;;;8.12;89.62
72285;BME280;60220;53.552;10.092;2023-02-23T02:05:49;100940.63;;;8.21;89.82
72285;BME280;60220;53.552;10.092;2023-02-23T02:08:16;100932.78;;;8.21;90.01
72285;BME280;60220;53.552;10.092;2023-02-23T02:10:44;100938.88;;;8.05;90.78
72285;BME280;60220;53.552;10.092;2023-02-23T02:13:19;100938.84;;;7.99;90.53
72285;BME280;60220;53.552;10.092;2023-02-23T02:16:05;100941.47;;;8.08;89.97
72285;BME280;60220;53.552;10.092;2023-02-23T02:18:50;100931.00;;;8.23;90.13
72285;BME280;60220;53.552;10.092;2023-02-23T02:21:31;100937.09;;;7.89;90.72
72285;BME280;60220;53.552;10.092;2023-02-23T02:24:18;100936.25;;;8.48;89.72
72285;BME280;60220;53.552;10.092;2023-02-23T02:26:59;100944.97;;;8.44;88.43
72285;BME280;60220;53.552;10.092;2023-02-23T02:32:56;100942.38;;;8.39;87.44
72285;BME280;60220;53.552;10.092;2023-02-23T02:36:01;100936.28;;;8.30;88.24
72285;BME280;60220;53.552;10.092;2023-02-23T02:38:40;100936.28;;;8.36;88.18
72285;BME280;60220;53.552;10.092;2023-02-23T02:41:18;100935.34;;;7.93;88.95
72285;BME280;60220;53.552;10.092;2023-02-23T02:43:50;100941.47;;;8.54;88.10
72285;BME280;60220;53.552;10.092;2023-02-23T02:46:23;100944.13;;;8.40;87.09
72285;BME280;60220;53.552;10.092;2023-02-23T02:48:56;100932.75;;;8.05;88.46
72285;BME280;60220;53.552;10.092;2023-02-23T02:51:27;100933.63;;;8.28;89.15
72285;BME280;60220;53.552;10.092;2023-02-23T02:54:02;100928.44;;;8.36;88.51
72285;BME280;60220;53.552;10.092;2023-02-23T02:56:33;100938.00;;;8.09;88.62
72285;BME280;60220;53.552;10.092;2023-02-23T02:59:10;100933.66;;;8.40;89.31
72285;BME280;60220;53.552;10.092;2023-02-23T03:01:55;100927.53;;;8.49;87.80
72285;BME280;60220;53.552;10.092;2023-02-23T03:04:39;100927.53;;;8.12;89.21
72285;BME280;60220;53.552;10.092;2023-02-23T03:07:25;100928.38;;;8.60;88.23
72285;BME280;60220;53.552;10.092;2023-02-23T03:10:17;100931.00;;;8.57;87.73
72285;BME280;60220;53.552;10.092;2023-02-23T03:13:14;100930.06;;;8.90;85.68
72285;BME280;60220;53.552;10.092;2023-02-23T03:16:13;100931.03;;;8.33;86.65
72285;BME280;60220;53.552;10.092;2023-02-23T03:19:09;100930.13;;;8.62;87.13
72285;BME280;60220;53.552;10.092;2023-02-23T03:22:05;100927.53;;;8.55;86.76
72285;BME280;60220;53.552;10.092;2023-02-23T03:24:51;100930.16;;;8.56;86.42
72285;BME280;60220;53.552;10.092;2023-02-23T03:27:44;100936.25;;;8.33;86.95
72285;BME280;60220;53.552;10.092;2023-02-23T03:30:39;100936.25;;;8.45;87.18
72285;BME280;60220;53.552;10.092;2023-02-23T03:33:34;100934.47;;;8.65;85.90
72285;BME280;60220;53.552;10.092;2023-02-23T03:36:24;100931.88;;;8.48;85.75
72285;BME280;60220;53.552;10.092;2023-02-23T03:39:14;100936.19;;;8.81;85.95
72285;BME280;60220;53.552;10.092;2023-02-23T03:42:07;100926.47;;;9.14;85.61
72285;BME280;60220;53.552;10.092;2023-02-23T03:44:56;100920.13;;;9.60;82.67
72285;BME280;60220;53.552;10.092;2023-02-23T03:47:42;100929.13;;;9.11;83.07
72285;BME280;60220;53.552;10.092;2023-02-23T03:50:32;100918.81;;;8.26;84.94
72285;BME280;60220;53.552;10.092;2023-02-23T03:53:23;100927.44;;;8.82;86.48
72285;BME280;60220;53.552;10.092;2023-02-23T03:56:12;100927.56;;;8.37;87.22
72285;BME280;60220;53.552;10.092;2023-02-23T03:59:00;100922.31;;;8.49;86.65
72285;BME280;60220;53.552;10.092;2023-02-23T04:01:47;100922.31;;;8.46;86.30
72285;BME280;60220;53.552;10.092;2023-02-23T04:04:34;100917.09;;;8.00;87.58
72285;BME280;60220;53.552;10.092;2023-02-23T04:07:19;100920.59;;;8.07;88.48
72285;BME280;60220;53.552;10.092;2023-02-23T04:10:04;100923.19;;;8.14;88.60
72285;BME280;60220;53.552;10.092;2023-02-23T04:12:53;100922.28;;;8.58;87.61
72285;BME280;60220;53.552;10.092;2023-02-23T04:15:47;100928.38;;;8.58;86.71
72285;BME280;60220;53.552;10.092;2023-02-23T04:18:16;100920.56;;;8.11;86.85
72285;BME280;60220;53.552;10.092;2023-02-23T04:20:43;100929.25;;;8.62;87.21
72285;BME280;60220;53.552;10.092;2023-02-23T04:23:10;100928.41;;;8.11;87.04
72285;BME280;60220;53.552;10.092;2023-02-23T04:25:36;100931.94;;;8.36;86.60
72285;BME280;60220;53.552;10.092;2023-02-23T04:28:03;100931.00;;;8.54;86.91
72285;BME280;60220;53.552;10.092;2023-02-23T04:30:32;100934.53;;;8.33;86.67
72285;BME280;60220;53.552;10.092;2023-02-23T04:32:59;100931.91;;;8.10;87.57
72285;BME280;60220;53.552;10.092;2023-02-23T04:35:27;100935.38;;;8.44;87.10
72285;BME280;60220;53.552;10.092;2023-02-23T04:37:57;100940.59;;;8.66;85.65
72285;BME280;60220;53.552;10.092;2023-02-23T04:40:24;100939.69;;;8.80;85.23
72285;BME280;60220;53.552;10.092;2023-02-23T04:42:52;100930.97;;;8.75;84.98
72285;BME280;60220;53.552;10.092;2023-02-23T04:45:19;100934.50;;;8.50;85.07
72285;BME280;60220;53.552;10.092;2023-02-23T04:47:49;100932.75;;;8.18;85.76
72285;BME280;60220;53.552;10.092;2023-02-23T04:50:18;100933.59;;;8.64;84.66
72285;BME280;60220;53.552;10.092;2023-02-23T04:52:46;100920.56;;;7.90;87.36
72285;BME280;60220;53.552;10.092;2023-02-23T04:55:16;100927.50;;;7.67;88.00
72285;BME280;60220;53.552;10.092;2023-02-23T04:57:44;100935.28;;;7.46;90.01
72285;BME280;60220;53.552;10.092;2023-02-23T05:00:11;100932.59;;;7.27;91.41
72285;BME280;60220;53.552;10.092;2023-02-23T05:02:38;100928.31;;;7.37;91.82
72285;BME280;60220;53.552;10.092;2023-02-23T05:05:05;100930.97;;;8.69;90.20
72285;BME280;60220;53.552;10.092;2023-02-23T05:07:34;100934.47;;;8.68;87.05
72285;BME280;60220;53.552;10.092;2023-02-23T05:10:03;100926.53;;;9.01;84.80
72285;BME280;60220;53.552;10.092;2023-02-23T05:12:32;100916.97;;;8.82;84.07
72285;BME280;60220;53.552;10.092;2023-02-23T05:14:59;100921.34;;;8.77;84.58
72285;BME280;60220;53.552;10.092;2023-02-23T05:17:26;100931.84;;;8.80;83.82
72285;BME280;60220;53.552;10.092;2023-02-23T05:19:52;100927.44;;;8.84;84.03
72285;BME280;60220;53.552;10.092;2023-02-23T05:22:20;100935.31;;;8.84;83.63
72285;BME280;60220;53.552;10.092;2023-02-23T05:24:47;100935.38;;;8.53;84.37
72285;BME280;60220;53.552;10.092;2023-02-23T05:27:16;100936.16;;;8.96;84.16
72285;BME280;60220;53.552;10.092;2023-02-23T05:29:43;100928.25;;;9.04;83.52
72285;BME280;60220;53.552;10.092;2023-02-23T05:32:10;100926.50;;;9.09;82.71
72285;BME280;60220;53.552;10.092;2023-02-23T05:34:36;100924.72;;;9.14;82.45
72285;BME280;60220;53.552;10.092;2023-02-23T05:37:04;100930.94;;;8.90;82.78
72285;BME280;60220;53.552;10.092;2023-02-23T05:39:31;100930.13;;;8.66;83.23
72285;BME280;60220;53.552;10.092;2023-02-23T05:41:57;100936.22;;;8.63;84.14
72285;BME280;60220;53.552;10.092;2023-02-23T05:44:26;100932.75;;;8.61;84.64
72285;BME280;60220;53.552;10.092;2023-02-23T05:46:54;100941.41;;;8.84;84.08
72285;BME280;60220;53.552;10.092;2023-02-23T05:49:23;100934.44;;;8.80;84.16
72285;BME280;60220;53.552;10.092;2023-02-23T05:51:49;100936.22;;;8.58;83.69
72285;BME280;60220;53.552;10.092;2023-02-23T05:54:16;100927.53;;;8.32;86.29
72285;BME280;60220;53.552;10.092;2023-02-23T05:56:45;100929.25;;;8.29;85.99
72285;BME280;60220;53.552;10.092;2023-02-23T05:59:11;100932.78;;;7.91;88.02
72285;BME280;60220;53.552;10.092;2023-02-23T06:01:39;100935.41;;;8.34;87.68
72285;BME280;60220;53.552;10.092;2023-02-23T06:04:06;100938.84;;;7.83;88.50
72285;BME280;60220;53.552;10.092;2023-02-23T06:06:33;100944.13;;;8.31;88.29
72285;BME280;60220;53.552;10.092;2023-02-23T06:09:00;100944.09;;;8.20;87.46
72285;BME280;60220;53.552;10.092;2023-02-23T06:11:27;100952.84;;;8.35;87.36
72285;BME280;60220;53.552;10.092;2023-02-23T06:13:55;100944.94;;;8.03;88.15
72285;BME280;60220;53.552;10.092;2023-02-23T06:16:23;100953.72;;;8.40;88.11
72285;BME280;60220;53.552;10.092;2023-02-23T06:18:52;100958.84;;;8.82;85.88
72285;BME280;60220;53.552;10.092;2023-02-23T06:21:18;100955.38;;;8.86;84.99
72285;BME280;60220;53.552;10.092;2023-02-23T06:23:48;100948.06;;;9.57;82.38
72285;BME280;60220;53.552;10.092;2023-02-23T06:26:15;100958.66;;;9.40;82.68
72285;BME280;60220;53.552;10.092;2023-02-23T06:28:41;100952.50;;;9.48;81.10
72285;BME280;60220;53.552;10.092;2023-02-23T06:31:08;100949.84;;;9.53;80.94
72285;BME280;60220;53.552;10.092;2023-02-23T06:33:38;100951.47;;;9.75;80.20
72285;BME280;60220;53.552;10.092;2023-02-23T06:36:06;100946.31;;;9.57;79.75
72285;BME280;60220;53.552;10.092;2023-02-23T06:38:34;100955.25;;;9.26;79.82
72285;BME280;60220;53.552;10.092;2023-02-23T06:41:06;100961.50;;;7.91;85.33
72285;BME280;60220;53.552;10.092;2023-02-23T06:43:33;100964.13;;;8.58;85.49
72285;BME280;60220;53.552;10.092;2023-02-23T06:46:02;100967.59;;;8.90;85.11
72285;BME280;60220;53.552;10.092;2023-02-23T06:48:30;100975.91;;;9.77;82.38
72285;BME280;60220;53.552;10.092;2023-02-23T06:50:57;100963.78;;;9.64;80.54
72285;BME280;60220;53.552;10.092;2023-02-23T06:53:26;100971.81;;;9.29;81.38
72285;BME280;60220;53.552;10.092;2023-02-23T06:55:53;100973.53;;;9.36;81.76
72285;BME280;60220;53.552;10.092;2023-02-23T06:58:19;100971.81;;;9.31;81.31
72285;BME280;60220;53.552;10.092;2023-02-23T07:00:46;100969.06;;;9.55;81.10
72285;BME280;60220;53.552;10.092;2023-02-23T07:03:13;100972.47;;;9.69;79.58
72285;BME280;60220;53.552;10.092;2023-02-23T07:05:39;100983.06;;;9.49;81.08
72285;BME280;60220;53.552;10.092;2023-02-23T07:08:08;100984.75;;;9.64;79.87
72285;BME280;60220;53.552;10.092;2023-02-23T07:10:37;100995.31;;;9.46;80.69
72285;BME280;60220;53.552;10.092;2023-02-23T07:13:06;100987.31;;;9.73;80.08
72285;BME280;60220;53.552;10.092;2023-02-23T07:15:33;100990.78;;;9.80;80.34
72285;BME280;60220;53.552;10.092;2023-02-23T07:18:02;100995.13;;;9.78;80.18
72285;BME280;60220;53.552;10.092;2023-02-23T07:20:29;100997.63;;;9.98;80.29
72285;BME280;60220;53.552;10.092;2023-02-23T07:22:57;100994.31;;;9.67;79.17
72285;BME280;60220;53.552;10.092;2023-02-23T07:25:28;101002.38;;;9.26;82.39
72285;BME280;60220;53.552;10.092;2023-02-23T07:27:56;101005.16;;;8.50;83.74
72285;BME280;60220;53.552;10.092;2023-02-23T07:30:23;101018.22;;;8.71;85.83
72285;BME280;60220;53.552;10.092;2023-02-23T07:32:50;101018.22;;;8.59;86.38
72285;BME280;60220;53.552;10.092;2023-02-23T07:35:17;101026.84;;;9.25;83.97
72285;BME280;60220;53.552;10.092;2023-02-23T07:37:46;101021.56;;;9.28;83.33
72285;BME280;60220;53.552;10.092;2023-02-23T07:40:13;101014.38;;;9.78;81.88
72285;BME280;60220;53.552;10.092;2023-02-23T07:42:40;101022.31;;;9.59;81.79
72285;BME280;60220;53.552;10.092;2023-02-23T07:45:09;101017.00;;;9.72;82.26
72285;BME280;60220;53.552;10.092;2023-02-23T07:47:36;101011.59;;;10.06;81.88
72285;BME280;60220;53.552;10.092;2023-02-23T07:50:05;101018.00;;;9.56;82.05
72285;BME280;60220;53.552;10.092;2023-02-23T07:52:35;101021.38;;;9.73;82.20
72285;BME280;60220;53.552;10.092;2023-02-23T07:55:03;101024.63;;;10.12;80.66
72285;BME280;60220;53.552;10.092;2023-02-23T07:57:29;101024.63;;;10.21;80.04
72285;BME280;60220;53.552;10.092;2023-02-23T07:59:56;101018.63;;;9.98;80.65
72285;BME280;60220;53.552;10.092;2023-02-23T08:02:24;101026.50;;;9.93;81.13
72285;BME280;60220;53.552;10.092;2023-02-23T08:04:55;101031.88;;;9.69;82.08
72285;BME280;60220;53.552;10.092;2023-02-23T08:07:22;101031.75;;;9.91;81.42
72285;BME280;60220;53.552;10.092;2023-02-23T08:09:50;101037.84;;;9.97;81.14
72285;BME280;60220;53.552;10.092;2023-02-23T08:12:19;101028.16;;;10.11;81.28
72285;BME280;60220;53.552;10.092;2023-02-23T08:14:48;101029.88;;;10.12;80.29
72285;BME280;60220;53.552;10.092;2023-02-23T08:17:15;101038.72;;;9.99;81.70
72285;BME280;60220;53.552;10.092;2023-02-23T08:19:43;101038.94;;;9.59;82.25
72285;BME280;60220;53.552;10.092;2023-02-23T08:22:10;101042.53;;;9.28;84.90
72285;BME280;60220;53.552;10.092;2023-02-23T08:24:37;101040.78;;;9.36;84.77
72285;BME280;60220;53.552;10.092;2023-02-23T08:27:05;101047.69;;;9.49;84.22
72285;BME280;60220;53.552;10.092;2023-02-23T08:29:32;101045.94;;;9.48;83.82
72285;BME280;60220;53.552;10.092;2023-02-23T08:32:00;101051.91;;;9.82;83.36
72285;BME280;60220;53.552;10.092;2023-02-23T08:34:27;101045.78;;;9.84;82.91
72285;BME280;60220;53.552;10.092;2023-02-23T08:36:55;101041.56;;;9.61;83.74
72285;BME280;60220;53.552;10.092;2023-02-23T08:39:24;101045.91;;;9.60;84.90
72285;BME280;60220;53.552;10.092;2023-02-23T08:41:50;101045.91;;;9.60;84.91
72285;BME280;60220;53.552;10.092;2023-02-23T08:44:22;101047.69;;;9.49;84.26
72285;BME280;60220;53.552;10.092;2023-02-23T08:46:49;101052.81;;;9.79;83.64
72285;BME280;60220;53.552;10.092;2023-02-23T08:49:18;101040.44;;;10.04;82.59
72285;BME280;60220;53.552;10.092;2023-02-23T08:51:45;101051.25;;;9.33;84.17
72285;BME280;60220;53.552;10.092;2023-02-23T08:54:13;101054.53;;;9.82;84.22
72285;BME280;60220;53.552;10.092;2023-02-23T08:56:45;101054.63;;;9.65;83.32
72285;BME280;60220;53.552;10.092;2023-02-23T08:59:14;101050.16;;;9.85;83.59
72285;BME280;60220;53.552;10.092;2023-02-23T09:01:41;101054.56;;;9.80;83.51
72285;BME280;60220;53.552;10.092;2023-02-23T09:04:08;101046.75;;;9.70;82.82
72285;BME280;60220;53.552;10.092;2023-02-23T09:06:36;101052.97;;;9.43;84.03
72285;BME280;60220;53.552;10.092;2023-02-23T09:09:02;101053.00;;;9.28;84.94
72285;BME280;60220;53.552;10.092;2023-02-23T09:11:31;101048.56;;;9.54;84.59
72285;BME280;60220;53.552;10.092;2023-02-23T09:13:57;101052.84;;;9.73;83.96
72285;BME280;60220;53.552;10.092;2023-02-23T09:16:24;101053.84;;;9.45;84.75
72285;BME280;60220;53.552;10.092;2023-02-23T09:18:51;101059.72;;;9.92;83.83
72285;BME280;60220;53.552;10.092;2023-02-23T09:21:19;101054.72;;;9.44;83.32
72285;BME280;60220;53.552;10.092;2023-02-23T09:23:49;101056.50;;;9.22;84.78
72285;BME280;60220;53.552;10.092;2023-02-23T09:26:17;101053.13;;;8.61;86.95
72285;BME280;60220;53.552;10.092;2023-02-23T09:28:49;101055.66;;;9.08;87.03
72285;BME280;60220;53.552;10.092;2023-02-23T09:31:18;101057.41;;;9.07;85.89
72285;BME280;60220;53.552;10.092;2023-02-23T09:33:45;101052.22;;;8.94;85.78
72285;BME280;60220;53.552;10.092;2023-02-23T09:36:12;101060.06;;;8.33;86.87
72285;BME280;60220;53.552;10.092;2023-02-23T09:38:40;101060.09;;;8.32;87.61
72285;BME280;60220;53.552;10.092;2023-02-23T09:44:28;101060.00;;;8.22;88.67
72285;BME280;60220;53.552;10.092;2023-02-23T09:47:10;101053.09;;;8.75;87.34
72285;BME280;60220;53.552;10.092;2023-02-23T09:49:44;101055.72;;;8.67;86.59
72285;BME280;60220;53.552;10.092;2023-02-23T09:52:17;101060.06;;;8.62;85.95
72285;BME280;60220;53.552;10.092;2023-02-23T09:54:45;101067.03;;;8.87;85.73
72285;BME280;60220;53.552;10.092;2023-02-23T09:57:17;101075.78;;;8.74;86.38
72285;BME280;60220;53.552;10.092;2023-02-23T09:59:48;101065.34;;;8.71;85.95
72285;BME280;60220;53.552;10.092;2023-02-23T10:02:22;101077.50;;;8.48;86.26
72285;BME280;60220;53.552;10.092;2023-02-23T10:04:51;101082.63;;;8.02;88.22
72285;BME280;60220;53.552;10.092;2023-02-23T10:07:25;101075.72;;;8.29;87.97
72285;BME280;60220;53.552;10.092;2023-02-23T10:10:03;101076.66;;;8.50;87.89
72285;BME280;60220;53.552;10.092;2023-02-23T10:12:39;101079.25;;;8.43;87.19
72285;BME280;60220;53.552;10.092;2023-02-23T10:15:23;101081.03;;;8.50;88.03
72285;BME280;60220;53.552;10.092;2023-02-23T10:18:00;101088.00;;;8.60;87.94
72285;BME280;60220;53.552;10.092;2023-02-23T10:20:38;101083.63;;;8.73;87.07
72285;BME280;60220;53.552;10.092;2023-02-23T10:23:14;101092.34;;;8.49;85.75
72285;BME280;60220;53.552;10.092;2023-02-23T10:25:44;101084.53;;;8.61;85.87
72285;BME280;60220;53.552;10.092;2023-02-23T10:28:14;101085.38;;;8.55;85.18
72285;BME280;60220;53.552;10.092;2023-02-23T10:30:44;101081.00;;;8.48;85.54
72285;BME280;60220;53.552;10.092;2023-02-23T10:33:13;101079.28;;;8.76;85.08
72285;BME280;60220;53.552;10.092;2023-02-23T10:35:41;101079.25;;;9.02;84.10
72285;BME280;60220;53.552;10.092;2023-02-23T10:38:14;101087.94;;;9.24;82.97
72285;BME280;60220;53.552;10.092;2023-02-23T10:40:45;101082.78;;;8.66;82.88
72285;BME280;60220;53.552;10.092;2023-02-23T10:43:15;101083.63;;;9.01;82.88
72285;BME280;60220;53.552;10.092;2023-02-23T10:45:47;101083.63;;;8.50;82.84
72285;BME280;60220;53.552;10.092;2023-02-23T10:48:18;101088.00;;;8.42;83.67
72285;BME280;60220;53.552;10.092;2023-02-23T10:50:47;101084.50;;;8.67;83.12
72285;BME280;60220;53.552;10.092;2023-02-23T10:53:17;101087.09;;;9.13;82.59
72285;BME280;60220;53.552;10.092;2023-02-23T10:55:46;101090.63;;;8.60;82.80
72285;BME280;60220;53.552;10.092;2023-02-23T10:58:14;101088.81;;;9.23;81.90
72285;BME280;60220;53.552;10.092;2023-02-23T11:00:53;101084.47;;;9.13;81.60
72285;BME280;60220;53.552;10.092;2023-02-23T11:03:24;101088.00;;;9.01;81.64
72285;BME280;60220;53.552;10.092;2023-02-23T11:05:54;101086.25;;;8.89;81.35
72285;BME280;60220;53.552;10.092;2023-02-23T11:08:26;101095.84;;;8.58;81.74
72285;BME280;60220;53.552;10.092;2023-02-23T11:11:02;101095.84;;;8.69;82.83
72285;BME280;60220;53.552;10.092;2023-02-23T11:13:35;101091.41;;;8.21;83.62
72285;BME280;60220;53.552;10.092;2023-02-23T11:16:06;101093.09;;;8.08;84.80
72285;BME280;60220;53.552;10.092;2023-02-23T11:18:35;101096.69;;;8.47;83.83
72285;BME280;60220;53.552;10.092;2023-02-23T11:21:02;101098.44;;;8.57;83.27
72285;BME280;60220;53.552;10.092;2023-02-23T11:23:36;101087.09;;;8.43;83.06
72285;BME280;60220;53.552;10.092;2023-02-23T11:26:18;101081.88;;;8.44;83.56
72285;BME280;60220;53.552;10.092;2023-02-23T11:28:50;101071.41;;;8.53;81.83
72285;BME280;60220;53.552;10.092;2023-02-23T11:31:21;101071.41;;;8.53;81.74
72285;BME280;60220;53.552;10.092;2023-02-23T11:33:49;101070.53;;;8.98;81.30
72285;BME280;60220;53.552;10.092;2023-02-23T11:36:26;101072.28;;;8.96;80.81
72285;BME280;60220;53.552;10.092;2023-02-23T11:39:01;101073.19;;;8.51;80.48
72285;BME280;60220;53.552;10.092;2023-02-23T11:41:28;101067.06;;;8.78;80.92
72285;BME280;60220;53.552;10.092;2023-02-23T11:44:00;101072.22;;;9.27;79.41
72285;BME280;60220;53.552;10.092;2023-02-23T11:46:31;101060.94;;;9.00;78.42
72285;BME280;60220;53.552;10.092;2023-02-23T11:49:02;101058.25;;;9.25;77.51
72285;BME280;60220;53.552;10.092;2023-02-23T11:51:32;101058.34;;;8.64;77.51
72285;BME280;60220;53.552;10.092;2023-02-23T11:54:01;101059.22;;;8.69;77.55
72285;BME280;60220;53.552;10.092;2023-02-23T11:56:30;101056.56;;;9.02;77.63
72285;BME280;60220;53.552;10.092;2023-02-23T11:59:02;101057.41;;;9.12;78.24
72285;BME280;60220;53.552;10.092;2023-02-23T12:01:39;101058.22;;;9.40;77.17
72285;BME280;60220;53.552;10.092;2023-02-23T12:04:24;101050.25;;;9.66;76.95
72285;BME280;60220;53.552;10.092;2023-02-23T12:06:56;101058.13;;;9.57;76.31
72285;BME280;60220;53.552;10.092;2023-02-23T12:09:45;101051.25;;;9.33;76.06
72285;BME280;60220;53.552;10.092;2023-02-23T12:12:16;101047.59;;;9.72;77.37
72285;BME280;60220;53.552;10.092;2023-02-23T12:14:47;101052.97;;;9.40;76.19
72285;BME280;60220;53.552;10.092;2023-02-23T12:17:23;101049.50;;;9.29;77.04
72285;BME280;60220;53.552;10.092;2023-02-23T12:19:57;101053.03;;;9.25;75.76
72285;BME280;60220;53.552;10.092;2023-02-23T12:22:29;101047.66;;;9.60;75.74
72285;BME280;60220;53.552;10.092;2023-02-23T12:25:00;101045.66;;;10.07;74.29
72285;BME280;60220;53.552;10.092;2023-02-23T12:27:34;101053.41;;;10.27;74.37
72285;BME280;60220;53.552;10.092;2023-02-23T12:30:13;101052.78;;;9.85;74.45
72285;BME280;60220;53.552;10.092;2023-02-23T12:32:45;101047.38;;;10.13;73.50
72285;BME280;60220;53.552;10.092;2023-02-23T12:35:18;101053.72;;;9.74;72.68
72285;BME280;60220;53.552;10.092;2023-02-23T12:37:49;101055.41;;;9.84;72.12
72285;BME280;60220;53.552;10.092;2023-02-23T12:40:21;101055.69;;;9.06;75.02
72285;BME280;60220;53.552;10.092;2023-02-23T12:42:55;101059.09;;;9.34;75.09
72285;BME280;60220;53.552;10.092;2023-02-23T12:45:31;101055.66;;;9.20;75.18
72285;BME280;60220;53.552;10.092;2023-02-23T12:48:11;101059.09;;;9.37;74.66
72285;BME280;60220;53.552;10.092;2023-02-23T12:50:44;101055.47;;;9.67;73.34
72285;BME280;60220;53.552;10.092;2023-02-23T12:53:20;101050.16;;;9.82;72.69
72285;BME280;60220;53.552;10.092;2023-02-23T12:55:56;101050.38;;;9.32;72.69
72285;BME280;60220;53.552;10.092;2023-02-23T12:58:35;101051.34;;;9.01;74.49
72285;BME280;60220;53.552;10.092;2023-02-23T13:01:10;101059.16;;;9.12;73.69
72285;BME280;60220;53.552;10.092;2023-02-23T13:04:03;101049.53;;;9.26;73.62
72285;BME280;60220;53.552;10.092;2023-02-23T13:06:38;101051.28;;;9.24;74.09
72285;BME280;60220;53.552;10.092;2023-02-23T13:09:18;101041.72;;;8.98;73.88
72285;BME280;60220;53.552;10.092;2023-02-23T13:12:01;101051.31;;;9.08;74.99
72285;BME280;60220;53.552;10.092;2023-02-23T13:14:36;101046.88;;;9.39;73.85
72285;BME280;60220;53.552;10.092;2023-02-23T13:17:15;101046.88;;;9.33;73.74
72285;BME280;60220;53.552;10.092;2023-02-23T13:19:51;101042.56;;;9.16;74.15
72285;BME280;60220;53.552;10.092;2023-02-23T13:22:28;101043.47;;;9.10;75.11